sensor_id;sensor_type;location;lat;lon;timestamp;temperature;humidity
41080;DHT22;26826;50.718;7.114;2023-03-03T00:04:51;2.50;99.90
41080;DHT22;26826;50.718;7.114;2023-03-03T00:14:52;2.30;99.90
41080;DHT22;26826;50.718;7.114;2023-03-03T00:24:53;2.20;99.90
41080;DHT22;26826;50.718;7.114;2023-03-03T00:34:55;2.10;99.90
41080;DHT22;26826;50.718;7.114;2023-03-03T00:45:01;2.10;99.90
41080;DHT22;26826;50.718;7.114;2023-03-03T00:55:06;1.90;99.90
41080;DHT22;26826;50.718;7.114;2023-03-03T01:05:09;2.00;99.90
41080;DHT22;26826;50.718;7.114;2023-03-03T01:15:13;1.80;99.90
41080;DHT22;26826;50.718;7.114;2023-03-03T01:25:14;1.70;99.90
41080;DHT22;26826;50.718;7.114;2023-03-03T01:35:15;1.60;99.90
41080;DHT22;26826;50.718;7.114;2023-03-03T01:45:25;1.60;99.90
41080;DHT22;26826;50.718;7.114;2023-03-03T01:55:32;1.40;99.90
41080;DHT22;26826;50.718;7.114;2023-03-03T02:05:34;1.30;99.90
41080;DHT22;26826;50.718;7.114;2023-03-03T02:15:34;1.10;99.90
41080;DHT22;26826;50.718;7.114;2023-03-03T02:25:43;1.00;99.90
41080;DHT22;26826;50.718;7.114;2023-03-03T02:35:44;1.00;99.90
41080;DHT22;26826;50.718;7.114;2023-03-03T02:46:05;0.80;99.90
41080;DHT22;26826;50.718;7.114;2023-03-03T02:56:06;0.60;99.90
41080;DHT22;26826;50.718;7.114;2023-03-03T03:06:08;0.50;99.90
41080;DHT22;26826;50.718;7.114;2023-03-03T03:16:09;0.30;99.90
41080;DHT22;26826;50.718;7.114;2023-03-03T03:26:10;0.10;99.90
41080;DHT22;26826;50.718;7.114;2023-03-03T03:36:11;0.00;99.90
41080;DHT22;26826;50.718;7.114;2023-03-03T03:46:12;-0.10;99.90
41080;DHT22;26826;50.718;7.114;2023-03-03T03:56:12;-0.20;99.90
41080;DHT22;26826;50.718;7.114;2023-03-03T04:06:13;-0.20;99.90
41080;DHT22;26826;50.718;7.114;2023-03-03T04:16:13;-0.30;99.90
41080;DHT22;26826;50.718;7.114;2023-03-03T04:26:14;-0.30;99.90
41080;DHT22;26826;50.718;7.114;2023-03-03T04:36:14;-0.30;99.90
41080;DHT22;26826;50.718;7.114;2023-03-03T04:46:15;-0.30;99.90
41080;DHT22;26826;50.718;7.114;2023-03-03T04:56:15;-0.40;99.90
41080;DHT22;26826;50.718;7.114;2023-03-03T05:06:16;-0.40;99.90
41080;DHT22;26826;50.718;7.114;2023-03-03T05:16:18;-0.30;99.90
41080;DHT22;26826;50.718;7.114;2023-03-03T05:26:18;0.10;99.90
41080;DHT22;26826;50.718;7.114;2023-03-03T05:36:19;0.30;99.90
41080;DHT22;26826;50.718;7.114;2023-03-03T05:46:20;0.40;99.90
41080;DHT22;26826;50.718;7.114;2023-03-03T05:56:20;0.70;99.90
41080;DHT22;26826;50.718;7.114;2023-03-03T06:06:21;0.70;99.90
41080;DHT22;26826;50.718;7.114;2023-03-03T06:16:21;0.90;99.90
41080;DHT22;26826;50.718;7.114;2023-03-03T06:26:25;0.80;99.90
41080;DHT22;26826;50.718;7.114;2023-03-03T06:36:25;1.00;99.90
41080;DHT22;26826;50.718;7.114;2023-03-03T06:46:26;1.00;99.90
41080;DHT22;26826;50.718;7.114;2023-03-03T06:56:28;1.10;99.90
41080;DHT22;26826;50.718;7.114;2023-03-03T07:06:31;1.20;99.90
41080;DHT22;26826;50.718;7.114;2023-03-03T07:16:31;1.30;99.90
41080;DHT22;26826;50.718;7.114;2023-03-03T07:26:54;1.40;99.90
41080;DHT22;26826;50.718;7.114;2023-03-03T07:37:08;1.20;99.90
41080;DHT22;26826;50.718;7.114;2023-03-03T07:47:30;1.10;99.90
41080;DHT22;26826;50.718;7.114;2023-03-03T07:57:40;1.20;99.90
41080;DHT22;26826;50.718;7.114;2023-03-03T08:07:44;1.30;99.90
41080;DHT22;26826;50.718;7.114;2023-03-03T08:17:51;1.30;99.90
41080;DHT22;26826;50.718;7.114;2023-03-03T08:28:02;1.40;99.90
41080;DHT22;26826;50.718;7.114;2023-03-03T08:38:03;1.50;99.90
41080;DHT22;26826;50.718;7.114;2023-03-03T08:48:04;1.60;99.90
41080;DHT22;26826;50.718;7.114;2023-03-03T08:58:05;1.70;99.90
41080;DHT22;26826;50.718;7.114;2023-03-03T09:08:06;1.80;99.90
41080;DHT22;26826;50.718;7.114;2023-03-03T09:28:26;2.00;99.90
41080;DHT22;26826;50.718;7.114;2023-03-03T09:38:32;2.30;99.90
41080;DHT22;26826;50.718;7.114;2023-03-03T09:48:55;2.20;99.90
41080;DHT22;26826;50.718;7.114;2023-03-03T10:40:14;2.30;99.90
41080;DHT22;26826;50.718;7.114;2023-03-03T10:50:20;2.50;99.90
41080;DHT22;26826;50.718;7.114;2023-03-03T11:21:15;3.10;99.90
41080;DHT22;26826;50.718;7.114;2023-03-03T12:02:33;3.70;99.90
41080;DHT22;26826;50.718;7.114;2023-03-03T12:12:47;3.70;99.90
41080;DHT22;26826;50.718;7.114;2023-03-03T12:33:20;4.10;99.90
41080;DHT22;26826;50.718;7.114;2023-03-03T12:43:42;4.30;99.90
41080;DHT22;26826;50.718;7.114;2023-03-03T12:53:50;4.60;99.90
41080;DHT22;26826;50.718;7.114;2023-03-03T13:04:13;4.80;99.90
41080;DHT22;26826;50.718;7.114;2023-03-03T13:14:40;5.20;99.90
41080;DHT22;26826;50.718;7.114;2023-03-03T13:35:04;7.10;99.90
41080;DHT22;26826;50.718;7.114;2023-03-03T13:55:48;8.20;99.90
41080;DHT22;26826;50.718;7.114;2023-03-03T14:06:02;7.30;99.90
41080;DHT22;26826;50.718;7.114;2023-03-03T14:16:04;8.60;99.90
41080;DHT22;26826;50.718;7.114;2023-03-03T14:26:10;9.30;99.90
41080;DHT22;26826;50.718;7.114;2023-03-03T14:36:12;9.00;99.90
41080;DHT22;26826;50.718;7.114;2023-03-03T14:46:33;7.80;99.90
41080;DHT22;26826;50.718;7.114;2023-03-03T14:56:55;7.10;99.90
41080;DHT22;26826;50.718;7.114;2023-03-03T15:06:56;6.80;99.90
41080;DHT22;26826;50.718;7.114;2023-03-03T15:17:16;6.20;99.90
41080;DHT22;26826;50.718;7.114;2023-03-03T15:27:24;5.80;99.90
41080;DHT22;26826;50.718;7.114;2023-03-03T15:48:19;6.00;99.90
41080;DHT22;26826;50.718;7.114;2023-03-03T16:19:33;4.90;99.90
41080;DHT22;26826;50.718;7.114;2023-03-03T16:39:58;4.20;99.90
41080;DHT22;26826;50.718;7.114;2023-03-03T17:00:20;3.70;99.90
41080;DHT22;26826;50.718;7.114;2023-03-03T17:20:49;3.10;99.90
41080;DHT22;26826;50.718;7.114;2023-03-03T17:31:16;2.80;99.90
41080;DHT22;26826;50.718;7.114;2023-03-03T17:41:31;2.60;99.90
41080;DHT22;26826;50.718;7.114;2023-03-03T17:52:35;2.50;99.90
41080;DHT22;26826;50.718;7.114;2023-03-03T18:02:33;2.30;99.90
41080;DHT22;26826;50.718;7.114;2023-03-03T18:23:40;2.00;99.90
41080;DHT22;26826;50.718;7.114;2023-03-03T18:33:43;1.90;99.90
41080;DHT22;26826;50.718;7.114;2023-03-03T18:44:00;1.90;99.90
41080;DHT22;26826;50.718;7.114;2023-03-03T19:04:19;1.70;99.90
41080;DHT22;26826;50.718;7.114;2023-03-03T19:24:31;1.50;99.90
41080;DHT22;26826;50.718;7.114;2023-03-03T19:34:46;1.40;99.90
41080;DHT22;26826;50.718;7.114;2023-03-03T19:55:20;1.30;99.90
41080;DHT22;26826;50.718;7.114;2023-03-03T20:05:40;1.20;99.90
41080;DHT22;26826;50.718;7.114;2023-03-03T20:25:50;1.20;99.90
41080;DHT22;26826;50.718;7.114;2023-03-03T21:07:07;1.00;99.90
41080;DHT22;26826;50.718;7.114;2023-03-03T21:17:25;0.80;99.90
41080;DHT22;26826;50.718;7.114;2023-03-03T21:27:31;0.70;99.90
41080;DHT22;26826;50.718;7.114;2023-03-03T21:37:52;0.70;99.90
41080;DHT22;26826;50.718;7.114;2023-03-03T21:47:53;0.50;99.90
41080;DHT22;26826;50.718;7.114;2023-03-03T21:57:54;0.70;99.90
41080;DHT22;26826;50.718;7.114;2023-03-03T22:07:54;0.90;99.90
41080;DHT22;26826;50.718;7.114;2023-03-03T22:17:55;1.00;99.90
41080;DHT22;26826;50.718;7.114;2023-03-03T22:27:56;1.10;99.90
41080;DHT22;26826;50.718;7.114;2023-03-03T22:37:56;1.20;99.90
41080;DHT22;26826;50.718;7.114;2023-03-03T22:47:57;1.30;99.90
41080;DHT22;26826;50.718;7.114;2023-03-03T22:57:57;1.10;99.90
41080;DHT22;26826;50.718;7.114;2023-03-03T23:07:58;1.30;99.90
41080;DHT22;26826;50.718;7.114;2023-03-03T23:17:59;1.40;99.90
41080;DHT22;26826;50.718;7.114;2023-03-03T23:27:59;1.20;99.90
41080;DHT22;26826;50.718;7.114;2023-03-03T23:38:01;1.30;99.90
41080;DHT22;26826;50.718;7.114;2023-03-03T23:48:01;1.30;99.90
41080;DHT22;26826;50.718;7.114;2023-03-03T23:58:02;1.50;99.90
